sensor_id;sensor_type;location;lat;lon;timestamp;P1;durP1;ratioP1;P2;durP2;ratioP2
52530;SDS011;38441;52.894;6.040;2023-04-27T00:01:37;11.50;;;5.65;;
52530;SDS011;38441;52.894;6.040;2023-04-27T00:04:03;9.70;;;5.38;;
52530;SDS011;38441;52.894;6.040;2023-04-27T00:06:29;9.10;;;5.22;;
52530;SDS011;38441;52.894;6.040;2023-04-27T00:08:56;13.55;;;5.85;;
52530;SDS011;38441;52.894;6.040;2023-04-27T00:11:23;8.63;;;5.53;;
52530;SDS011;38441;52.894;6.040;2023-04-27T00:13:49;8.65;;;5.10;;
52530;SDS011;38441;52.894;6.040;2023-04-27T00:16:15;12.70;;;5.10;;
52530;SDS011;38441;52.894;6.040;2023-04-27T00:18:42;8.02;;;4.93;;
52530;SDS011;38441;52.894;6.040;2023-04-27T00:21:08;7.65;;;4.93;;
52530;SDS011;38441;52.894;6.040;2023-04-27T00:23:34;8.90;;;5.50;;
52530;SDS011;38441;52.894;6.040;2023-04-27T00:26:00;7.75;;;5.18;;
52530;SDS011;38441;52.894;6.040;2023-04-27T00:28:26;7.35;;;4.90;;
52530;SDS011;38441;52.894;6.040;2023-04-27T00:30:52;7.15;;;4.82;;
52530;SDS011;38441;52.894;6.040;2023-04-27T00:33:19;10.00;;;5.15;;
52530;SDS011;38441;52.894;6.040;2023-04-27T00:35:45;8.05;;;5.47;;
52530;SDS011;38441;52.894;6.040;2023-04-27T00:38:11;10.10;;;5.47;;
52530;SDS011;38441;52.894;6.040;2023-04-27T00:40:37;11.25;;;5.20;;
52530;SDS011;38441;52.894;6.040;2023-04-27T00:43:03;10.32;;;5.28;;
52530;SDS011;38441;52.894;6.040;2023-04-27T00:45:29;9.93;;;4.95;;
52530;SDS011;38441;52.894;6.040;2023-04-27T00:47:55;9.88;;;4.78;;
52530;SDS011;38441;52.894;6.040;2023-04-27T00:50:30;6.07;;;4.40;;
52530;SDS011;38441;52.894;6.040;2023-04-27T00:52:56;7.20;;;4.70;;
52530;SDS011;38441;52.894;6.040;2023-04-27T00:55:22;7.85;;;4.53;;
52530;SDS011;38441;52.894;6.040;2023-04-27T00:57:49;8.52;;;4.60;;
52530;SDS011;38441;52.894;6.040;2023-04-27T01:00:15;7.32;;;4.28;;
52530;SDS011;38441;52.894;6.040;2023-04-27T01:02:42;8.18;;;4.47;;
52530;SDS011;38441;52.894;6.040;2023-04-27T01:05:08;9.90;;;4.72;;
52530;SDS011;38441;52.894;6.040;2023-04-27T01:07:37;9.15;;;5.03;;
52530;SDS011;38441;52.894;6.040;2023-04-27T01:10:04;11.63;;;4.50;;
52530;SDS011;38441;52.894;6.040;2023-04-27T01:12:31;9.75;;;4.55;;
52530;SDS011;38441;52.894;6.040;2023-04-27T01:14:57;8.75;;;4.18;;
52530;SDS011;38441;52.894;6.040;2023-04-27T01:17:23;7.28;;;4.82;;
52530;SDS011;38441;52.894;6.040;2023-04-27T01:19:49;7.47;;;5.07;;
52530;SDS011;38441;52.894;6.040;2023-04-27T01:22:16;8.70;;;5.03;;
52530;SDS011;38441;52.894;6.040;2023-04-27T01:24:42;8.00;;;4.63;;
52530;SDS011;38441;52.894;6.040;2023-04-27T01:27:08;11.25;;;4.30;;
52530;SDS011;38441;52.894;6.040;2023-04-27T01:29:34;7.72;;;4.65;;
52530;SDS011;38441;52.894;6.040;2023-04-27T01:32:00;7.65;;;4.68;;
52530;SDS011;38441;52.894;6.040;2023-04-27T01:34:26;9.85;;;4.05;;
52530;SDS011;38441;52.894;6.040;2023-04-27T01:36:52;9.52;;;4.90;;
52530;SDS011;38441;52.894;6.040;2023-04-27T01:39:18;8.38;;;4.10;;
52530;SDS011;38441;52.894;6.040;2023-04-27T01:41:44;7.20;;;4.28;;
52530;SDS011;38441;52.894;6.040;2023-04-27T01:44:10;6.53;;;4.38;;
52530;SDS011;38441;52.894;6.040;2023-04-27T01:46:36;7.72;;;4.50;;
52530;SDS011;38441;52.894;6.040;2023-04-27T01:49:02;7.40;;;4.18;;
52530;SDS011;38441;52.894;6.040;2023-04-27T01:51:28;12.48;;;4.88;;
52530;SDS011;38441;52.894;6.040;2023-04-27T01:53:54;8.70;;;4.10;;
52530;SDS011;38441;52.894;6.040;2023-04-27T01:56:20;7.38;;;4.28;;
52530;SDS011;38441;52.894;6.040;2023-04-27T01:58:46;6.30;;;3.72;;
52530;SDS011;38441;52.894;6.040;2023-04-27T02:01:12;5.65;;;3.63;;
52530;SDS011;38441;52.894;6.040;2023-04-27T02:03:38;7.80;;;4.03;;
52530;SDS011;38441;52.894;6.040;2023-04-27T02:06:05;7.35;;;3.80;;
52530;SDS011;38441;52.894;6.040;2023-04-27T02:08:32;8.20;;;4.93;;
52530;SDS011;38441;52.894;6.040;2023-04-27T02:10:58;10.38;;;5.53;;
52530;SDS011;38441;52.894;6.040;2023-04-27T02:13:24;9.55;;;4.97;;
52530;SDS011;38441;52.894;6.040;2023-04-27T02:15:50;7.15;;;4.10;;
52530;SDS011;38441;52.894;6.040;2023-04-27T02:18:16;10.80;;;4.43;;
52530;SDS011;38441;52.894;6.040;2023-04-27T02:20:42;7.28;;;4.00;;
52530;SDS011;38441;52.894;6.040;2023-04-27T02:23:08;9.15;;;4.90;;
52530;SDS011;38441;52.894;6.040;2023-04-27T02:25:35;9.70;;;4.03;;
52530;SDS011;38441;52.894;6.040;2023-04-27T02:28:02;11.27;;;4.80;;
52530;SDS011;38441;52.894;6.040;2023-04-27T02:30:28;8.88;;;4.00;;
52530;SDS011;38441;52.894;6.040;2023-04-27T02:32:54;7.93;;;3.22;;
52530;SDS011;38441;52.894;6.040;2023-04-27T02:35:20;6.28;;;3.40;;
52530;SDS011;38441;52.894;6.040;2023-04-27T02:37:46;5.85;;;2.97;;
52530;SDS011;38441;52.894;6.040;2023-04-27T02:40:12;6.70;;;3.05;;
52530;SDS011;38441;52.894;6.040;2023-04-27T02:42:38;5.88;;;3.10;;
52530;SDS011;38441;52.894;6.040;2023-04-27T02:45:05;6.60;;;3.03;;
52530;SDS011;38441;52.894;6.040;2023-04-27T02:47:31;6.95;;;3.47;;
52530;SDS011;38441;52.894;6.040;2023-04-27T02:49:57;8.85;;;4.18;;
52530;SDS011;38441;52.894;6.040;2023-04-27T02:52:23;8.52;;;3.92;;
52530;SDS011;38441;52.894;6.040;2023-04-27T02:54:49;10.80;;;3.95;;
52530;SDS011;38441;52.894;6.040;2023-04-27T02:57:15;7.93;;;3.90;;
52530;SDS011;38441;52.894;6.040;2023-04-27T02:59:41;8.45;;;3.60;;
52530;SDS011;38441;52.894;6.040;2023-04-27T03:02:07;8.45;;;4.07;;
52530;SDS011;38441;52.894;6.040;2023-04-27T03:04:33;6.55;;;3.42;;
52530;SDS011;38441;52.894;6.040;2023-04-27T03:07:01;6.40;;;3.38;;
52530;SDS011;38441;52.894;6.040;2023-04-27T03:09:27;9.57;;;3.80;;
52530;SDS011;38441;52.894;6.040;2023-04-27T03:11:53;8.02;;;3.70;;
52530;SDS011;38441;52.894;6.040;2023-04-27T03:14:19;7.40;;;3.25;;
52530;SDS011;38441;52.894;6.040;2023-04-27T03:16:47;8.02;;;3.60;;
52530;SDS011;38441;52.894;6.040;2023-04-27T03:19:13;6.43;;;3.75;;
52530;SDS011;38441;52.894;6.040;2023-04-27T03:21:39;8.05;;;4.35;;
52530;SDS011;38441;52.894;6.040;2023-04-27T03:24:05;7.35;;;3.72;;
52530;SDS011;38441;52.894;6.040;2023-04-27T03:26:31;6.03;;;3.55;;
52530;SDS011;38441;52.894;6.040;2023-04-27T03:28:57;8.60;;;3.80;;
52530;SDS011;38441;52.894;6.040;2023-04-27T03:31:23;6.70;;;4.05;;
52530;SDS011;38441;52.894;6.040;2023-04-27T03:33:49;8.07;;;3.67;;
52530;SDS011;38441;52.894;6.040;2023-04-27T03:36:15;7.57;;;4.35;;
52530;SDS011;38441;52.894;6.040;2023-04-27T03:38:41;10.63;;;4.18;;
52530;SDS011;38441;52.894;6.040;2023-04-27T03:41:07;7.75;;;4.22;;
52530;SDS011;38441;52.894;6.040;2023-04-27T03:43:33;6.78;;;4.22;;
52530;SDS011;38441;52.894;6.040;2023-04-27T03:46:00;8.40;;;4.78;;
52530;SDS011;38441;52.894;6.040;2023-04-27T03:48:26;7.30;;;4.35;;
52530;SDS011;38441;52.894;6.040;2023-04-27T03:50:52;8.88;;;4.43;;
52530;SDS011;38441;52.894;6.040;2023-04-27T03:53:18;7.18;;;4.20;;
52530;SDS011;38441;52.894;6.040;2023-04-27T03:55:44;8.30;;;4.38;;
52530;SDS011;38441;52.894;6.040;2023-04-27T03:58:10;7.30;;;4.10;;
52530;SDS011;38441;52.894;6.040;2023-04-27T04:00:36;7.32;;;4.55;;
52530;SDS011;38441;52.894;6.040;2023-04-27T04:03:03;7.43;;;4.20;;
52530;SDS011;38441;52.894;6.040;2023-04-27T04:05:29;6.80;;;4.05;;
52530;SDS011;38441;52.894;6.040;2023-04-27T04:07:55;6.53;;;4.00;;
52530;SDS011;38441;52.894;6.040;2023-04-27T04:10:22;5.82;;;3.83;;
52530;SDS011;38441;52.894;6.040;2023-04-27T04:12:48;6.78;;;4.35;;
52530;SDS011;38441;52.894;6.040;2023-04-27T04:15:14;9.85;;;4.57;;
52530;SDS011;38441;52.894;6.040;2023-04-27T04:17:40;9.82;;;5.13;;
52530;SDS011;38441;52.894;6.040;2023-04-27T04:20:06;7.20;;;4.40;;
52530;SDS011;38441;52.894;6.040;2023-04-27T04:22:35;7.57;;;4.30;;
52530;SDS011;38441;52.894;6.040;2023-04-27T04:25:02;7.55;;;4.18;;
52530;SDS011;38441;52.894;6.040;2023-04-27T04:27:28;7.30;;;4.22;;
52530;SDS011;38441;52.894;6.040;2023-04-27T04:29:55;8.57;;;4.10;;
52530;SDS011;38441;52.894;6.040;2023-04-27T04:32:24;6.05;;;3.78;;
52530;SDS011;38441;52.894;6.040;2023-04-27T04:34:52;6.88;;;4.30;;
52530;SDS011;38441;52.894;6.040;2023-04-27T04:37:18;7.47;;;3.60;;
52530;SDS011;38441;52.894;6.040;2023-04-27T04:39:44;6.35;;;3.60;;
52530;SDS011;38441;52.894;6.040;2023-04-27T04:42:10;8.13;;;3.30;;
52530;SDS011;38441;52.894;6.040;2023-04-27T04:44:36;7.68;;;3.88;;
52530;SDS011;38441;52.894;6.040;2023-04-27T04:47:03;7.00;;;3.70;;
52530;SDS011;38441;52.894;6.040;2023-04-27T04:49:29;5.47;;;3.63;;
52530;SDS011;38441;52.894;6.040;2023-04-27T04:51:55;6.47;;;3.95;;
52530;SDS011;38441;52.894;6.040;2023-04-27T04:54:21;6.57;;;3.70;;
52530;SDS011;38441;52.894;6.040;2023-04-27T04:56:47;6.10;;;3.78;;
52530;SDS011;38441;52.894;6.040;2023-04-27T04:59:13;6.90;;;4.30;;
52530;SDS011;38441;52.894;6.040;2023-04-27T05:01:40;7.60;;;3.47;;
52530;SDS011;38441;52.894;6.040;2023-04-27T05:04:06;9.00;;;3.97;;
52530;SDS011;38441;52.894;6.040;2023-04-27T05:06:32;6.25;;;3.58;;
52530;SDS011;38441;52.894;6.040;2023-04-27T05:08:58;6.82;;;4.10;;
52530;SDS011;38441;52.894;6.040;2023-04-27T05:11:24;9.40;;;3.60;;
52530;SDS011;38441;52.894;6.040;2023-04-27T05:13:50;7.15;;;3.72;;
52530;SDS011;38441;52.894;6.040;2023-04-27T05:16:17;6.50;;;3.47;;
52530;SDS011;38441;52.894;6.040;2023-04-27T05:18:43;7.13;;;3.97;;
52530;SDS011;38441;52.894;6.040;2023-04-27T05:21:12;6.38;;;4.28;;
52530;SDS011;38441;52.894;6.040;2023-04-27T05:23:39;8.63;;;5.20;;
52530;SDS011;38441;52.894;6.040;2023-04-27T05:26:15;8.00;;;4.90;;
52530;SDS011;38441;52.894;6.040;2023-04-27T05:28:41;9.45;;;5.30;;
52530;SDS011;38441;52.894;6.040;2023-04-27T05:31:07;8.50;;;5.13;;
52530;SDS011;38441;52.894;6.040;2023-04-27T05:33:33;9.80;;;5.68;;
52530;SDS011;38441;52.894;6.040;2023-04-27T05:36:00;9.32;;;5.90;;
52530;SDS011;38441;52.894;6.040;2023-04-27T05:38:26;7.35;;;5.03;;
52530;SDS011;38441;52.894;6.040;2023-04-27T05:40:56;8.68;;;5.60;;
52530;SDS011;38441;52.894;6.040;2023-04-27T05:43:22;10.45;;;6.25;;
52530;SDS011;38441;52.894;6.040;2023-04-27T05:45:49;9.40;;;5.93;;
52530;SDS011;38441;52.894;6.040;2023-04-27T05:48:15;8.07;;;5.15;;
52530;SDS011;38441;52.894;6.040;2023-04-27T05:50:41;8.45;;;5.03;;
52530;SDS011;38441;52.894;6.040;2023-04-27T05:53:07;9.27;;;4.93;;
52530;SDS011;38441;52.894;6.040;2023-04-27T05:55:33;11.82;;;4.82;;
52530;SDS011;38441;52.894;6.040;2023-04-27T05:57:59;7.53;;;5.13;;
52530;SDS011;38441;52.894;6.040;2023-04-27T06:00:26;15.25;;;5.45;;
52530;SDS011;38441;52.894;6.040;2023-04-27T06:02:52;8.23;;;4.88;;
52530;SDS011;38441;52.894;6.040;2023-04-27T06:05:18;8.77;;;4.70;;
52530;SDS011;38441;52.894;6.040;2023-04-27T06:07:44;7.45;;;4.75;;
52530;SDS011;38441;52.894;6.040;2023-04-27T06:10:10;7.53;;;4.57;;
52530;SDS011;38441;52.894;6.040;2023-04-27T06:12:36;8.00;;;4.72;;
52530;SDS011;38441;52.894;6.040;2023-04-27T06:15:03;8.00;;;4.80;;
52530;SDS011;38441;52.894;6.040;2023-04-27T06:17:36;8.98;;;4.75;;
52530;SDS011;38441;52.894;6.040;2023-04-27T06:20:02;7.57;;;4.43;;
52530;SDS011;38441;52.894;6.040;2023-04-27T06:22:32;8.27;;;3.97;;
52530;SDS011;38441;52.894;6.040;2023-04-27T06:24:58;9.52;;;4.85;;
52530;SDS011;38441;52.894;6.040;2023-04-27T06:27:24;7.78;;;4.82;;
52530;SDS011;38441;52.894;6.040;2023-04-27T06:29:50;8.82;;;4.50;;
52530;SDS011;38441;52.894;6.040;2023-04-27T06:32:16;6.10;;;4.07;;
52530;SDS011;38441;52.894;6.040;2023-04-27T06:34:42;7.00;;;4.10;;
52530;SDS011;38441;52.894;6.040;2023-04-27T06:37:08;8.70;;;3.83;;
52530;SDS011;38441;52.894;6.040;2023-04-27T06:39:34;5.70;;;3.53;;
52530;SDS011;38441;52.894;6.040;2023-04-27T06:42:01;9.68;;;4.55;;
52530;SDS011;38441;52.894;6.040;2023-04-27T06:44:28;8.63;;;3.97;;
52530;SDS011;38441;52.894;6.040;2023-04-27T06:46:54;9.40;;;4.50;;
52530;SDS011;38441;52.894;6.040;2023-04-27T06:49:20;7.47;;;3.58;;
52530;SDS011;38441;52.894;6.040;2023-04-27T06:51:47;9.13;;;3.90;;
52530;SDS011;38441;52.894;6.040;2023-04-27T06:54:13;6.68;;;3.45;;
52530;SDS011;38441;52.894;6.040;2023-04-27T06:56:39;8.60;;;3.88;;
52530;SDS011;38441;52.894;6.040;2023-04-27T06:59:06;6.97;;;3.53;;
52530;SDS011;38441;52.894;6.040;2023-04-27T07:01:32;6.68;;;3.25;;
52530;SDS011;38441;52.894;6.040;2023-04-27T07:03:58;5.10;;;3.03;;
52530;SDS011;38441;52.894;6.040;2023-04-27T07:06:24;10.25;;;2.97;;
52530;SDS011;38441;52.894;6.040;2023-04-27T07:08:50;6.40;;;3.10;;
52530;SDS011;38441;52.894;6.040;2023-04-27T07:11:16;4.55;;;2.42;;
52530;SDS011;38441;52.894;6.040;2023-04-27T07:13:42;7.90;;;2.83;;
52530;SDS011;38441;52.894;6.040;2023-04-27T07:16:08;4.97;;;2.42;;
52530;SDS011;38441;52.894;6.040;2023-04-27T07:18:34;4.15;;;2.40;;
52530;SDS011;38441;52.894;6.040;2023-04-27T07:21:00;4.50;;;2.08;;
52530;SDS011;38441;52.894;6.040;2023-04-27T07:23:26;7.05;;;1.90;;
52530;SDS011;38441;52.894;6.040;2023-04-27T07:25:52;4.25;;;1.90;;
52530;SDS011;38441;52.894;6.040;2023-04-27T07:28:18;5.35;;;2.38;;
52530;SDS011;38441;52.894;6.040;2023-04-27T07:30:44;6.63;;;2.40;;
52530;SDS011;38441;52.894;6.040;2023-04-27T07:33:11;6.68;;;2.10;;
52530;SDS011;38441;52.894;6.040;2023-04-27T07:35:37;4.82;;;2.33;;
52530;SDS011;38441;52.894;6.040;2023-04-27T07:38:03;3.75;;;1.95;;
52530;SDS011;38441;52.894;6.040;2023-04-27T07:40:29;4.57;;;2.20;;
52530;SDS011;38441;52.894;6.040;2023-04-27T07:42:56;7.07;;;2.17;;
52530;SDS011;38441;52.894;6.040;2023-04-27T07:45:22;6.82;;;2.30;;
52530;SDS011;38441;52.894;6.040;2023-04-27T07:47:55;3.92;;;1.42;;
52530;SDS011;38441;52.894;6.040;2023-04-27T07:50:22;3.70;;;1.50;;
52530;SDS011;38441;52.894;6.040;2023-04-27T07:52:51;5.22;;;1.90;;
52530;SDS011;38441;52.894;6.040;2023-04-27T07:55:18;5.80;;;2.15;;
52530;SDS011;38441;52.894;6.040;2023-04-27T07:57:45;3.53;;;1.95;;
52530;SDS011;38441;52.894;6.040;2023-04-27T08:00:11;5.32;;;1.90;;
52530;SDS011;38441;52.894;6.040;2023-04-27T08:02:37;3.88;;;2.15;;
52530;SDS011;38441;52.894;6.040;2023-04-27T08:05:03;4.07;;;2.22;;
52530;SDS011;38441;52.894;6.040;2023-04-27T08:07:29;5.60;;;2.05;;
52530;SDS011;38441;52.894;6.040;2023-04-27T08:09:56;5.03;;;1.75;;
52530;SDS011;38441;52.894;6.040;2023-04-27T08:12:22;6.03;;;2.17;;
52530;SDS011;38441;52.894;6.040;2023-04-27T08:14:48;3.83;;;1.70;;
52530;SDS011;38441;52.894;6.040;2023-04-27T08:17:14;5.10;;;1.73;;
52530;SDS011;38441;52.894;6.040;2023-04-27T08:19:41;5.07;;;2.20;;
52530;SDS011;38441;52.894;6.040;2023-04-27T08:22:07;4.47;;;1.98;;
52530;SDS011;38441;52.894;6.040;2023-04-27T08:24:33;6.63;;;2.20;;
52530;SDS011;38441;52.894;6.040;2023-04-27T08:27:00;5.72;;;2.47;;
52530;SDS011;38441;52.894;6.040;2023-04-27T08:29:27;4.95;;;2.53;;
52530;SDS011;38441;52.894;6.040;2023-04-27T08:31:53;8.45;;;2.65;;
52530;SDS011;38441;52.894;6.040;2023-04-27T08:34:20;5.82;;;2.85;;
52530;SDS011;38441;52.894;6.040;2023-04-27T08:36:46;7.07;;;3.63;;
52530;SDS011;38441;52.894;6.040;2023-04-27T08:39:12;9.35;;;4.50;;
52530;SDS011;38441;52.894;6.040;2023-04-27T08:41:40;11.93;;;5.10;;
52530;SDS011;38441;52.894;6.040;2023-04-27T08:44:07;10.43;;;4.10;;
52530;SDS011;38441;52.894;6.040;2023-04-27T08:46:33;10.50;;;3.40;;
52530;SDS011;38441;52.894;6.040;2023-04-27T08:48:59;9.55;;;3.30;;
52530;SDS011;38441;52.894;6.040;2023-04-27T08:51:25;7.30;;;4.18;;
52530;SDS011;38441;52.894;6.040;2023-04-27T08:53:53;11.05;;;4.55;;
52530;SDS011;38441;52.894;6.040;2023-04-27T08:56:22;9.82;;;5.05;;
52530;SDS011;38441;52.894;6.040;2023-04-27T08:58:49;8.32;;;4.25;;
52530;SDS011;38441;52.894;6.040;2023-04-27T09:01:15;7.50;;;3.85;;
52530;SDS011;38441;52.894;6.040;2023-04-27T09:03:42;8.60;;;3.50;;
52530;SDS011;38441;52.894;6.040;2023-04-27T09:06:10;9.65;;;4.43;;
52530;SDS011;38441;52.894;6.040;2023-04-27T09:08:55;10.05;;;4.47;;
52530;SDS011;38441;52.894;6.040;2023-04-27T09:11:31;10.35;;;5.50;;
52530;SDS011;38441;52.894;6.040;2023-04-27T09:14:02;11.93;;;5.43;;
52530;SDS011;38441;52.894;6.040;2023-04-27T09:16:39;9.00;;;4.88;;
52530;SDS011;38441;52.894;6.040;2023-04-27T09:19:05;9.95;;;4.63;;
52530;SDS011;38441;52.894;6.040;2023-04-27T09:21:31;10.48;;;4.00;;
52530;SDS011;38441;52.894;6.040;2023-04-27T09:24:07;9.85;;;3.72;;
52530;SDS011;38441;52.894;6.040;2023-04-27T09:26:35;4.45;;;2.47;;
52530;SDS011;38441;52.894;6.040;2023-04-27T09:29:01;6.55;;;2.90;;
52530;SDS011;38441;52.894;6.040;2023-04-27T09:31:34;7.65;;;3.35;;
52530;SDS011;38441;52.894;6.040;2023-04-27T09:34:00;7.10;;;2.50;;
52530;SDS011;38441;52.894;6.040;2023-04-27T09:36:26;6.07;;;2.47;;
52530;SDS011;38441;52.894;6.040;2023-04-27T09:38:53;8.00;;;3.10;;
52530;SDS011;38441;52.894;6.040;2023-04-27T09:41:19;5.57;;;2.05;;
52530;SDS011;38441;52.894;6.040;2023-04-27T09:43:45;5.85;;;2.45;;
52530;SDS011;38441;52.894;6.040;2023-04-27T09:46:14;4.50;;;2.35;;
52530;SDS011;38441;52.894;6.040;2023-04-27T09:48:40;4.22;;;2.30;;
52530;SDS011;38441;52.894;6.040;2023-04-27T09:51:07;4.00;;;1.92;;
52530;SDS011;38441;52.894;6.040;2023-04-27T09:53:35;5.05;;;1.88;;
52530;SDS011;38441;52.894;6.040;2023-04-27T10:02:12;5.22;;;2.28;;
52530;SDS011;38441;52.894;6.040;2023-04-27T10:07:34;6.40;;;2.42;;
52530;SDS011;38441;52.894;6.040;2023-04-27T10:10:02;4.70;;;2.28;;
52530;SDS011;38441;52.894;6.040;2023-04-27T10:12:32;4.13;;;2.13;;
52530;SDS011;38441;52.894;6.040;2023-04-27T10:15:12;6.20;;;2.30;;
52530;SDS011;38441;52.894;6.040;2023-04-27T10:17:46;4.30;;;2.20;;
52530;SDS011;38441;52.894;6.040;2023-04-27T10:20:27;6.45;;;2.55;;
52530;SDS011;38441;52.894;6.040;2023-04-27T10:22:54;6.20;;;2.88;;
52530;SDS011;38441;52.894;6.040;2023-04-27T10:25:20;5.75;;;2.42;;
52530;SDS011;38441;52.894;6.040;2023-04-27T10:27:48;6.13;;;1.98;;
52530;SDS011;38441;52.894;6.040;2023-04-27T10:30:16;10.75;;;3.15;;
52530;SDS011;38441;52.894;6.040;2023-04-27T10:32:50;5.88;;;2.47;;
52530;SDS011;38441;52.894;6.040;2023-04-27T10:35:17;5.72;;;2.60;;
52530;SDS011;38441;52.894;6.040;2023-04-27T10:37:45;5.30;;;2.97;;
52530;SDS011;38441;52.894;6.040;2023-04-27T10:40:12;7.53;;;2.85;;
52530;SDS011;38441;52.894;6.040;2023-04-27T10:42:41;5.70;;;2.42;;
52530;SDS011;38441;52.894;6.040;2023-04-27T10:45:09;7.07;;;2.65;;
52530;SDS011;38441;52.894;6.040;2023-04-27T10:47:38;4.15;;;2.42;;
52530;SDS011;38441;52.894;6.040;2023-04-27T10:50:05;7.88;;;2.60;;
52530;SDS011;38441;52.894;6.040;2023-04-27T10:52:32;5.93;;;2.70;;
52530;SDS011;38441;52.894;6.040;2023-04-27T10:55:03;5.78;;;2.78;;
52530;SDS011;38441;52.894;6.040;2023-04-27T10:57:44;6.72;;;2.80;;
52530;SDS011;38441;52.894;6.040;2023-04-27T11:00:21;6.30;;;2.55;;
52530;SDS011;38441;52.894;6.040;2023-04-27T11:02:48;10.40;;;3.13;;
52530;SDS011;38441;52.894;6.040;2023-04-27T11:05:21;8.85;;;3.33;;
52530;SDS011;38441;52.894;6.040;2023-04-27T11:08:02;5.97;;;2.95;;
52530;SDS011;38441;52.894;6.040;2023-04-27T11:10:32;4.82;;;2.97;;
52530;SDS011;38441;52.894;6.040;2023-04-27T11:13:12;5.80;;;2.88;;
52530;SDS011;38441;52.894;6.040;2023-04-27T11:15:52;6.55;;;3.25;;
52530;SDS011;38441;52.894;6.040;2023-04-27T11:18:19;7.65;;;3.03;;
52530;SDS011;38441;52.894;6.040;2023-04-27T11:20:47;5.15;;;3.25;;
52530;SDS011;38441;52.894;6.040;2023-04-27T11:23:26;8.48;;;3.25;;
52530;SDS011;38441;52.894;6.040;2023-04-27T11:25:53;6.25;;;2.97;;
52530;SDS011;38441;52.894;6.040;2023-04-27T11:28:20;6.43;;;3.17;;
52530;SDS011;38441;52.894;6.040;2023-04-27T11:30:48;6.80;;;3.28;;
52530;SDS011;38441;52.894;6.040;2023-04-27T11:33:23;4.65;;;3.10;;
52530;SDS011;38441;52.894;6.040;2023-04-27T11:35:49;6.88;;;3.30;;
52530;SDS011;38441;52.894;6.040;2023-04-27T11:38:15;7.88;;;3.47;;
52530;SDS011;38441;52.894;6.040;2023-04-27T11:40:42;5.18;;;3.15;;
52530;SDS011;38441;52.894;6.040;2023-04-27T11:43:12;7.60;;;3.50;;
52530;SDS011;38441;52.894;6.040;2023-04-27T11:45:41;8.35;;;4.07;;
52530;SDS011;38441;52.894;6.040;2023-04-27T11:48:13;7.20;;;3.65;;
52530;SDS011;38441;52.894;6.040;2023-04-27T11:50:39;9.38;;;4.30;;
52530;SDS011;38441;52.894;6.040;2023-04-27T11:53:05;7.70;;;3.78;;
52530;SDS011;38441;52.894;6.040;2023-04-27T11:55:34;6.72;;;3.75;;
52530;SDS011;38441;52.894;6.040;2023-04-27T11:58:00;8.60;;;3.45;;
52530;SDS011;38441;52.894;6.040;2023-04-27T12:00:25;8.18;;;3.92;;
52530;SDS011;38441;52.894;6.040;2023-04-27T12:02:51;7.28;;;3.35;;
52530;SDS011;38441;52.894;6.040;2023-04-27T12:05:16;6.30;;;3.60;;
52530;SDS011;38441;52.894;6.040;2023-04-27T12:07:43;7.60;;;3.60;;
52530;SDS011;38441;52.894;6.040;2023-04-27T12:10:09;8.52;;;4.10;;
52530;SDS011;38441;52.894;6.040;2023-04-27T12:12:35;6.68;;;3.42;;
52530;SDS011;38441;52.894;6.040;2023-04-27T12:15:01;8.05;;;4.40;;
52530;SDS011;38441;52.894;6.040;2023-04-27T12:17:27;11.20;;;4.05;;
52530;SDS011;38441;52.894;6.040;2023-04-27T12:19:53;6.78;;;3.30;;
52530;SDS011;38441;52.894;6.040;2023-04-27T12:22:19;6.68;;;3.08;;
52530;SDS011;38441;52.894;6.040;2023-04-27T12:24:45;5.82;;;2.95;;
52530;SDS011;38441;52.894;6.040;2023-04-27T12:27:11;6.57;;;3.35;;
52530;SDS011;38441;52.894;6.040;2023-04-27T12:29:36;9.85;;;4.07;;
52530;SDS011;38441;52.894;6.040;2023-04-27T12:32:03;6.65;;;3.80;;
52530;SDS011;38441;52.894;6.040;2023-04-27T12:34:28;5.22;;;3.33;;
52530;SDS011;38441;52.894;6.040;2023-04-27T12:36:54;8.30;;;4.00;;
52530;SDS011;38441;52.894;6.040;2023-04-27T12:39:21;5.88;;;3.65;;
52530;SDS011;38441;52.894;6.040;2023-04-27T12:41:51;7.00;;;3.25;;
52530;SDS011;38441;52.894;6.040;2023-04-27T12:44:17;5.43;;;3.40;;
52530;SDS011;38441;52.894;6.040;2023-04-27T12:46:44;5.90;;;3.10;;
52530;SDS011;38441;52.894;6.040;2023-04-27T12:49:12;6.35;;;3.22;;
52530;SDS011;38441;52.894;6.040;2023-04-27T12:51:38;7.22;;;3.53;;
52530;SDS011;38441;52.894;6.040;2023-04-27T12:54:04;8.88;;;4.15;;
52530;SDS011;38441;52.894;6.040;2023-04-27T12:56:31;6.68;;;3.13;;
52530;SDS011;38441;52.894;6.040;2023-04-27T12:58:57;6.00;;;3.25;;
52530;SDS011;38441;52.894;6.040;2023-04-27T13:01:24;8.32;;;3.35;;
52530;SDS011;38441;52.894;6.040;2023-04-27T13:03:57;6.90;;;3.40;;
52530;SDS011;38441;52.894;6.040;2023-04-27T13:06:24;6.90;;;3.55;;
52530;SDS011;38441;52.894;6.040;2023-04-27T13:08:50;7.63;;;3.15;;
52530;SDS011;38441;52.894;6.040;2023-04-27T13:11:16;8.50;;;3.40;;
52530;SDS011;38441;52.894;6.040;2023-04-27T13:13:43;7.80;;;3.72;;
52530;SDS011;38441;52.894;6.040;2023-04-27T13:16:09;7.90;;;3.60;;
52530;SDS011;38441;52.894;6.040;2023-04-27T13:18:35;5.80;;;3.58;;
52530;SDS011;38441;52.894;6.040;2023-04-27T13:21:02;9.52;;;3.45;;
52530;SDS011;38441;52.894;6.040;2023-04-27T13:23:29;8.18;;;3.70;;
52530;SDS011;38441;52.894;6.040;2023-04-27T13:25:55;7.05;;;3.67;;
52530;SDS011;38441;52.894;6.040;2023-04-27T13:28:21;7.15;;;3.78;;
52530;SDS011;38441;52.894;6.040;2023-04-27T13:30:46;6.75;;;3.25;;
52530;SDS011;38441;52.894;6.040;2023-04-27T13:33:13;9.10;;;3.70;;
52530;SDS011;38441;52.894;6.040;2023-04-27T13:35:39;5.65;;;3.67;;
52530;SDS011;38441;52.894;6.040;2023-04-27T13:38:05;6.45;;;3.40;;
52530;SDS011;38441;52.894;6.040;2023-04-27T13:40:31;7.32;;;3.63;;
52530;SDS011;38441;52.894;6.040;2023-04-27T13:42:57;5.57;;;3.63;;
52530;SDS011;38441;52.894;6.040;2023-04-27T13:45:23;5.10;;;3.47;;
52530;SDS011;38441;52.894;6.040;2023-04-27T13:47:49;8.38;;;3.65;;
52530;SDS011;38441;52.894;6.040;2023-04-27T13:50:14;6.47;;;3.20;;
52530;SDS011;38441;52.894;6.040;2023-04-27T13:52:40;8.07;;;3.97;;
52530;SDS011;38441;52.894;6.040;2023-04-27T13:55:06;6.97;;;3.55;;
52530;SDS011;38441;52.894;6.040;2023-04-27T13:57:34;7.40;;;3.35;;
52530;SDS011;38441;52.894;6.040;2023-04-27T14:00:00;5.30;;;3.40;;
52530;SDS011;38441;52.894;6.040;2023-04-27T14:02:29;7.82;;;3.33;;
52530;SDS011;38441;52.894;6.040;2023-04-27T14:04:56;7.38;;;3.28;;
52530;SDS011;38441;52.894;6.040;2023-04-27T14:07:22;8.45;;;3.80;;
52530;SDS011;38441;52.894;6.040;2023-04-27T14:09:48;8.27;;;3.58;;
52530;SDS011;38441;52.894;6.040;2023-04-27T14:12:14;7.03;;;3.20;;
52530;SDS011;38441;52.894;6.040;2023-04-27T14:14:40;7.10;;;3.25;;
52530;SDS011;38441;52.894;6.040;2023-04-27T14:17:05;7.43;;;3.42;;
52530;SDS011;38441;52.894;6.040;2023-04-27T14:19:31;7.18;;;3.70;;
52530;SDS011;38441;52.894;6.040;2023-04-27T14:22:00;5.00;;;2.88;;
52530;SDS011;38441;52.894;6.040;2023-04-27T14:24:27;5.60;;;3.35;;
52530;SDS011;38441;52.894;6.040;2023-04-27T14:26:52;7.47;;;3.83;;
52530;SDS011;38441;52.894;6.040;2023-04-27T14:29:18;7.05;;;3.05;;
52530;SDS011;38441;52.894;6.040;2023-04-27T14:31:44;5.60;;;3.40;;
52530;SDS011;38441;52.894;6.040;2023-04-27T14:34:10;8.18;;;3.42;;
52530;SDS011;38441;52.894;6.040;2023-04-27T14:36:38;8.30;;;3.25;;
52530;SDS011;38441;52.894;6.040;2023-04-27T14:39:04;6.65;;;3.50;;
52530;SDS011;38441;52.894;6.040;2023-04-27T14:41:31;5.53;;;2.90;;
52530;SDS011;38441;52.894;6.040;2023-04-27T14:43:56;7.00;;;3.97;;
52530;SDS011;38441;52.894;6.040;2023-04-27T14:46:22;6.93;;;3.13;;
52530;SDS011;38441;52.894;6.040;2023-04-27T14:48:48;6.78;;;3.75;;
52530;SDS011;38441;52.894;6.040;2023-04-27T14:51:14;7.35;;;3.45;;
52530;SDS011;38441;52.894;6.040;2023-04-27T14:53:40;6.97;;;3.13;;